sensor_id;sensor_type;location;lat;lon;timestamp;pressure;altitude;pressure_sealevel;temperature;humidity
11985;BME280;6052;53.246;10.368;2023-04-28T00:00:26;101358.41;;;11.87;64.81
11985;BME280;6052;53.246;10.368;2023-04-28T00:02:58;101354.31;;;11.85;64.50
11985;BME280;6052;53.246;10.368;2023-04-28T00:05:29;101352.69;;;11.84;64.89
11985;BME280;6052;53.246;10.368;2023-04-28T00:07:59;101354.31;;;11.85;64.45
11985;BME280;6052;53.246;10.368;2023-04-28T00:10:29;101353.56;;;11.78;64.48
11985;BME280;6052;53.246;10.368;2023-04-28T00:12:59;101342.53;;;11.68;65.24
11985;BME280;6052;53.246;10.368;2023-04-28T00:15:29;101341.03;;;11.72;65.39
11985;BME280;6052;53.246;10.368;2023-04-28T00:18:01;101338.69;;;11.64;65.21
11985;BME280;6052;53.246;10.368;2023-04-28T00:20:31;101340.25;;;11.71;64.94
11985;BME280;6052;53.246;10.368;2023-04-28T00:23:00;101338.84;;;11.69;65.01
11985;BME280;6052;53.246;10.368;2023-04-28T00:25:29;101326.88;;;11.65;65.10
11985;BME280;6052;53.246;10.368;2023-04-28T00:27:59;101331.69;;;11.74;64.75
11985;BME280;6052;53.246;10.368;2023-04-28T00:30:29;101335.75;;;11.65;64.67
11985;BME280;6052;53.246;10.368;2023-04-28T00:33:01;101336.13;;;11.69;64.43
11985;BME280;6052;53.246;10.368;2023-04-28T00:35:30;101324.78;;;11.67;64.75
11985;BME280;6052;53.246;10.368;2023-04-28T00:38:00;101319.25;;;11.62;64.69
11985;BME280;6052;53.246;10.368;2023-04-28T00:40:32;101321.50;;;11.65;64.37
11985;BME280;6052;53.246;10.368;2023-04-28T00:43:02;101315.59;;;11.56;64.26
11985;BME280;6052;53.246;10.368;2023-04-28T00:45:32;101318.88;;;11.58;64.15
11985;BME280;6052;53.246;10.368;2023-04-28T00:48:04;101311.25;;;11.55;64.54
11985;BME280;6052;53.246;10.368;2023-04-28T00:50:34;101306.69;;;11.56;64.23
11985;BME280;6052;53.246;10.368;2023-04-28T00:53:04;101303.19;;;11.55;64.08
11985;BME280;6052;53.246;10.368;2023-04-28T00:55:34;101301.78;;;11.53;64.46
11985;BME280;6052;53.246;10.368;2023-04-28T00:58:03;101302.03;;;11.51;64.36
11985;BME280;6052;53.246;10.368;2023-04-28T01:00:33;101296.66;;;11.51;64.03
11985;BME280;6052;53.246;10.368;2023-04-28T01:03:05;101297.09;;;11.48;63.89
11985;BME280;6052;53.246;10.368;2023-04-28T01:05:35;101294.63;;;11.47;64.18
11985;BME280;6052;53.246;10.368;2023-04-28T01:08:05;101288.88;;;11.43;64.01
11985;BME280;6052;53.246;10.368;2023-04-28T01:10:34;101295.25;;;11.31;65.18
11985;BME280;6052;53.246;10.368;2023-04-28T01:13:04;101292.56;;;11.31;64.50
11985;BME280;6052;53.246;10.368;2023-04-28T01:15:33;101304.59;;;11.28;64.38
11985;BME280;6052;53.246;10.368;2023-04-28T01:18:03;101297.75;;;10.96;65.42
11985;BME280;6052;53.246;10.368;2023-04-28T01:20:35;101287.00;;;10.96;65.50
11985;BME280;6052;53.246;10.368;2023-04-28T01:23:05;101291.03;;;11.05;65.73
11985;BME280;6052;53.246;10.368;2023-04-28T01:25:42;101283.75;;;10.94;65.38
11985;BME280;6052;53.246;10.368;2023-04-28T01:28:12;101288.00;;;11.02;65.01
11985;BME280;6052;53.246;10.368;2023-04-28T01:30:41;101284.16;;;11.09;64.84
11985;BME280;6052;53.246;10.368;2023-04-28T01:33:10;101284.88;;;11.05;64.85
11985;BME280;6052;53.246;10.368;2023-04-28T01:35:40;101280.66;;;11.09;64.71
11985;BME280;6052;53.246;10.368;2023-04-28T01:38:09;101275.06;;;11.10;64.42
11985;BME280;6052;53.246;10.368;2023-04-28T01:40:42;101284.25;;;11.03;65.10
11985;BME280;6052;53.246;10.368;2023-04-28T01:43:11;101277.81;;;11.04;64.70
11985;BME280;6052;53.246;10.368;2023-04-28T01:45:41;101277.59;;;11.05;64.51
11985;BME280;6052;53.246;10.368;2023-04-28T01:48:10;101271.03;;;11.01;64.56
11985;BME280;6052;53.246;10.368;2023-04-28T01:50:40;101268.13;;;11.03;64.38
11985;BME280;6052;53.246;10.368;2023-04-28T01:53:13;101273.34;;;10.98;64.27
11985;BME280;6052;53.246;10.368;2023-04-28T01:55:52;101267.63;;;10.94;64.57
11985;BME280;6052;53.246;10.368;2023-04-28T01:58:22;101270.94;;;10.78;65.08
11985;BME280;6052;53.246;10.368;2023-04-28T02:00:51;101262.19;;;10.83;65.05
11985;BME280;6052;53.246;10.368;2023-04-28T02:03:21;101266.50;;;10.84;65.08
11985;BME280;6052;53.246;10.368;2023-04-28T02:05:51;101262.78;;;10.67;65.43
11985;BME280;6052;53.246;10.368;2023-04-28T02:08:20;101256.06;;;10.58;65.73
11985;BME280;6052;53.246;10.368;2023-04-28T02:10:53;101260.53;;;10.64;65.46
11985;BME280;6052;53.246;10.368;2023-04-28T02:13:22;101262.50;;;10.57;65.73
11985;BME280;6052;53.246;10.368;2023-04-28T02:15:52;101257.13;;;10.57;65.71
11985;BME280;6052;53.246;10.368;2023-04-28T02:18:22;101256.56;;;10.48;65.70
11985;BME280;6052;53.246;10.368;2023-04-28T02:20:51;101248.00;;;10.40;65.86
11985;BME280;6052;53.246;10.368;2023-04-28T02:23:21;101254.78;;;10.42;65.73
11985;BME280;6052;53.246;10.368;2023-04-28T02:26:02;101247.09;;;10.46;65.90
11985;BME280;6052;53.246;10.368;2023-04-28T02:28:31;101245.03;;;10.48;65.52
11985;BME280;6052;53.246;10.368;2023-04-28T02:31:05;101249.88;;;10.57;65.41
11985;BME280;6052;53.246;10.368;2023-04-28T02:33:35;101249.72;;;10.34;65.49
11985;BME280;6052;53.246;10.368;2023-04-28T02:36:06;101247.91;;;10.28;66.15
11985;BME280;6052;53.246;10.368;2023-04-28T02:38:37;101248.16;;;10.27;66.33
11985;BME280;6052;53.246;10.368;2023-04-28T02:41:09;101242.69;;;10.15;66.20
11985;BME280;6052;53.246;10.368;2023-04-28T02:43:40;101240.81;;;10.16;66.56
11985;BME280;6052;53.246;10.368;2023-04-28T02:46:10;101242.06;;;10.13;66.39
11985;BME280;6052;53.246;10.368;2023-04-28T02:48:39;101242.13;;;10.07;66.26
11985;BME280;6052;53.246;10.368;2023-04-28T02:51:09;101230.38;;;10.08;66.57
11985;BME280;6052;53.246;10.368;2023-04-28T02:53:39;101232.25;;;10.01;66.64
11985;BME280;6052;53.246;10.368;2023-04-28T02:56:12;101226.44;;;10.04;66.37
11985;BME280;6052;53.246;10.368;2023-04-28T02:58:42;101218.75;;;10.14;65.72
11985;BME280;6052;53.246;10.368;2023-04-28T03:01:11;101211.28;;;10.16;65.47
11985;BME280;6052;53.246;10.368;2023-04-28T03:03:42;101218.13;;;10.12;65.82
11985;BME280;6052;53.246;10.368;2023-04-28T03:06:12;101211.97;;;10.11;65.58
11985;BME280;6052;53.246;10.368;2023-04-28T03:08:41;101203.88;;;10.18;65.20
11985;BME280;6052;53.246;10.368;2023-04-28T03:11:13;101195.19;;;10.16;65.14
11985;BME280;6052;53.246;10.368;2023-04-28T03:13:43;101194.63;;;10.14;65.68
11985;BME280;6052;53.246;10.368;2023-04-28T03:16:12;101195.94;;;10.05;65.90
11985;BME280;6052;53.246;10.368;2023-04-28T03:18:42;101193.94;;;9.94;66.28
11985;BME280;6052;53.246;10.368;2023-04-28T03:21:11;101187.22;;;9.85;66.49
11985;BME280;6052;53.246;10.368;2023-04-28T03:23:41;101185.75;;;9.89;66.41
11985;BME280;6052;53.246;10.368;2023-04-28T03:26:13;101189.59;;;9.75;67.01
11985;BME280;6052;53.246;10.368;2023-04-28T03:28:42;101190.06;;;9.65;67.64
11985;BME280;6052;53.246;10.368;2023-04-28T03:31:12;101186.38;;;9.35;69.27
11985;BME280;6052;53.246;10.368;2023-04-28T03:33:42;101184.53;;;9.60;67.64
11985;BME280;6052;53.246;10.368;2023-04-28T03:36:12;101180.59;;;9.63;67.54
11985;BME280;6052;53.246;10.368;2023-04-28T03:38:42;101179.72;;;9.44;68.57
11985;BME280;6052;53.246;10.368;2023-04-28T03:41:14;101178.91;;;9.68;67.23
11985;BME280;6052;53.246;10.368;2023-04-28T03:43:44;101170.72;;;9.63;67.46
11985;BME280;6052;53.246;10.368;2023-04-28T03:46:13;101163.88;;;9.67;67.31
11985;BME280;6052;53.246;10.368;2023-04-28T03:48:43;101161.41;;;9.66;67.33
11985;BME280;6052;53.246;10.368;2023-04-28T03:51:12;101163.72;;;9.62;67.63
11985;BME280;6052;53.246;10.368;2023-04-28T03:53:42;101152.66;;;9.52;67.91
11985;BME280;6052;53.246;10.368;2023-04-28T03:56:14;101153.41;;;9.59;67.66
11985;BME280;6052;53.246;10.368;2023-04-28T03:58:44;101156.44;;;9.45;68.01
11985;BME280;6052;53.246;10.368;2023-04-28T04:01:14;101154.34;;;9.47;67.97
11985;BME280;6052;53.246;10.368;2023-04-28T04:03:45;101145.00;;;9.56;67.59
11985;BME280;6052;53.246;10.368;2023-04-28T04:06:15;101149.00;;;9.47;67.57
11985;BME280;6052;53.246;10.368;2023-04-28T04:08:45;101143.63;;;9.47;67.82
11985;BME280;6052;53.246;10.368;2023-04-28T04:11:17;101147.03;;;9.36;67.86
11985;BME280;6052;53.246;10.368;2023-04-28T04:13:47;101135.47;;;9.35;67.71
11985;BME280;6052;53.246;10.368;2023-04-28T04:16:16;101150.50;;;9.36;67.59
11985;BME280;6052;53.246;10.368;2023-04-28T04:18:47;101144.66;;;9.21;68.30
11985;BME280;6052;53.246;10.368;2023-04-28T04:21:17;101143.72;;;9.09;68.72
11985;BME280;6052;53.246;10.368;2023-04-28T04:23:46;101146.00;;;9.06;68.84
11985;BME280;6052;53.246;10.368;2023-04-28T04:26:18;101136.59;;;9.21;68.57
11985;BME280;6052;53.246;10.368;2023-04-28T04:28:48;101136.34;;;9.29;68.19
11985;BME280;6052;53.246;10.368;2023-04-28T04:31:17;101135.69;;;9.34;67.97
11985;BME280;6052;53.246;10.368;2023-04-28T04:33:48;101123.28;;;9.39;68.27
11985;BME280;6052;53.246;10.368;2023-04-28T04:36:17;101125.75;;;9.41;67.42
11985;BME280;6052;53.246;10.368;2023-04-28T04:38:47;101125.09;;;9.21;68.73
11985;BME280;6052;53.246;10.368;2023-04-28T04:41:22;101125.84;;;9.28;68.83
11985;BME280;6052;53.246;10.368;2023-04-28T04:43:51;101125.81;;;9.34;68.69
11985;BME280;6052;53.246;10.368;2023-04-28T04:46:21;101118.97;;;9.38;68.54
11985;BME280;6052;53.246;10.368;2023-04-28T04:48:51;101107.22;;;9.39;68.32
11985;BME280;6052;53.246;10.368;2023-04-28T04:51:20;101112.47;;;9.28;69.63
11985;BME280;6052;53.246;10.368;2023-04-28T04:53:49;101113.72;;;9.25;69.94
11985;BME280;6052;53.246;10.368;2023-04-28T04:56:21;101118.47;;;9.23;70.16
11985;BME280;6052;53.246;10.368;2023-04-28T04:58:53;101114.97;;;9.23;70.11
11985;BME280;6052;53.246;10.368;2023-04-28T05:01:23;101111.66;;;9.27;69.45
11985;BME280;6052;53.246;10.368;2023-04-28T05:03:52;101112.16;;;9.42;69.29
11985;BME280;6052;53.246;10.368;2023-04-28T05:06:22;101106.78;;;9.42;69.17
11985;BME280;6052;53.246;10.368;2023-04-28T05:08:52;101103.84;;;9.26;70.75
11985;BME280;6052;53.246;10.368;2023-04-28T05:11:24;101101.78;;;9.21;71.01
11985;BME280;6052;53.246;10.368;2023-04-28T05:13:54;101092.97;;;9.21;71.07
11985;BME280;6052;53.246;10.368;2023-04-28T05:16:23;101095.44;;;9.22;71.37
11985;BME280;6052;53.246;10.368;2023-04-28T05:18:53;101105.47;;;9.27;72.50
11985;BME280;6052;53.246;10.368;2023-04-28T05:21:29;101097.06;;;9.23;72.51
11985;BME280;6052;53.246;10.368;2023-04-28T05:24:01;101096.09;;;9.11;73.61
11985;BME280;6052;53.246;10.368;2023-04-28T05:30:01;101099.19;;;9.15;73.42
11985;BME280;6052;53.246;10.368;2023-04-28T05:32:32;101089.50;;;9.14;73.74
11985;BME280;6052;53.246;10.368;2023-04-28T05:35:02;101092.00;;;9.09;74.22
11985;BME280;6052;53.246;10.368;2023-04-28T05:37:31;101086.28;;;9.05;73.15
11985;BME280;6052;53.246;10.368;2023-04-28T05:40:05;101082.44;;;8.95;73.67
11985;BME280;6052;53.246;10.368;2023-04-28T05:42:34;101083.38;;;9.07;74.32
11985;BME280;6052;53.246;10.368;2023-04-28T05:45:08;101081.13;;;9.04;74.25
11985;BME280;6052;53.246;10.368;2023-04-28T05:47:38;101073.44;;;8.89;72.87
11985;BME280;6052;53.246;10.368;2023-04-28T05:50:08;101067.31;;;9.07;73.13
11985;BME280;6052;53.246;10.368;2023-04-28T05:52:38;101071.59;;;9.14;72.83
11985;BME280;6052;53.246;10.368;2023-04-28T05:55:08;101070.09;;;8.94;72.14
11985;BME280;6052;53.246;10.368;2023-04-28T05:57:38;101071.03;;;9.06;73.36
11985;BME280;6052;53.246;10.368;2023-04-28T06:00:21;101070.13;;;9.18;72.31
11985;BME280;6052;53.246;10.368;2023-04-28T06:02:51;101071.00;;;9.12;72.28
11985;BME280;6052;53.246;10.368;2023-04-28T06:05:21;101067.75;;;9.04;72.31
11985;BME280;6052;53.246;10.368;2023-04-28T06:07:51;101062.38;;;9.04;71.89
11985;BME280;6052;53.246;10.368;2023-04-28T06:10:22;101066.56;;;9.24;71.60
11985;BME280;6052;53.246;10.368;2023-04-28T06:12:51;101066.94;;;9.28;71.13
11985;BME280;6052;53.246;10.368;2023-04-28T06:15:23;101065.63;;;9.37;71.91
11985;BME280;6052;53.246;10.368;2023-04-28T06:17:53;101071.19;;;9.35;71.83
11985;BME280;6052;53.246;10.368;2023-04-28T06:20:22;101068.44;;;9.42;71.18
11985;BME280;6052;53.246;10.368;2023-04-28T06:22:51;101076.81;;;9.52;71.41
11985;BME280;6052;53.246;10.368;2023-04-28T06:25:21;101065.78;;;9.42;71.46
11985;BME280;6052;53.246;10.368;2023-04-28T06:27:50;101067.28;;;9.56;71.39
11985;BME280;6052;53.246;10.368;2023-04-28T06:30:23;101064.09;;;9.47;71.06
11985;BME280;6052;53.246;10.368;2023-04-28T06:32:55;101059.69;;;9.53;71.03
11985;BME280;6052;53.246;10.368;2023-04-28T06:35:25;101058.41;;;9.55;70.58
11985;BME280;6052;53.246;10.368;2023-04-28T06:37:55;101055.09;;;9.60;70.60
11985;BME280;6052;53.246;10.368;2023-04-28T06:40:24;101059.94;;;9.69;72.00
11985;BME280;6052;53.246;10.368;2023-04-28T06:42:53;101055.41;;;9.70;71.23
11985;BME280;6052;53.246;10.368;2023-04-28T06:45:25;101058.03;;;9.76;70.96
11985;BME280;6052;53.246;10.368;2023-04-28T06:47:55;101052.56;;;9.83;70.63
11985;BME280;6052;53.246;10.368;2023-04-28T06:50:24;101049.53;;;9.97;70.45
11985;BME280;6052;53.246;10.368;2023-04-28T06:52:54;101047.06;;;9.96;70.45
11985;BME280;6052;53.246;10.368;2023-04-28T06:55:25;101034.84;;;10.00;69.48
11985;BME280;6052;53.246;10.368;2023-04-28T06:57:54;101046.63;;;9.99;68.08
11985;BME280;6052;53.246;10.368;2023-04-28T07:00:26;101043.25;;;10.03;69.67
11985;BME280;6052;53.246;10.368;2023-04-28T07:02:56;101038.72;;;10.04;68.16
11985;BME280;6052;53.246;10.368;2023-04-28T07:05:26;101030.38;;;10.12;68.86
11985;BME280;6052;53.246;10.368;2023-04-28T07:07:55;101028.16;;;10.27;69.25
11985;BME280;6052;53.246;10.368;2023-04-28T07:10:25;101026.19;;;10.34;67.51
11985;BME280;6052;53.246;10.368;2023-04-28T07:12:54;101018.53;;;10.49;69.10
11985;BME280;6052;53.246;10.368;2023-04-28T07:15:27;101023.56;;;10.45;67.24
11985;BME280;6052;53.246;10.368;2023-04-28T07:17:57;101018.09;;;10.52;66.27
11985;BME280;6052;53.246;10.368;2023-04-28T07:20:26;101019.38;;;10.61;66.68
11985;BME280;6052;53.246;10.368;2023-04-28T07:22:56;101011.34;;;10.72;67.76
11985;BME280;6052;53.246;10.368;2023-04-28T07:25:25;101017.25;;;10.81;66.77
11985;BME280;6052;53.246;10.368;2023-04-28T07:27:55;101015.38;;;10.93;66.36
11985;BME280;6052;53.246;10.368;2023-04-28T07:30:27;101020.41;;;10.89;65.55
11985;BME280;6052;53.246;10.368;2023-04-28T07:32:56;101007.56;;;11.03;64.85
11985;BME280;6052;53.246;10.368;2023-04-28T07:35:26;101014.13;;;11.07;63.80
11985;BME280;6052;53.246;10.368;2023-04-28T07:37:55;101007.34;;;11.16;64.12
11985;BME280;6052;53.246;10.368;2023-04-28T07:40:25;101005.84;;;11.20;64.51
11985;BME280;6052;53.246;10.368;2023-04-28T07:42:55;101005.25;;;11.29;64.56
11985;BME280;6052;53.246;10.368;2023-04-28T07:45:27;101008.63;;;11.36;64.13
11985;BME280;6052;53.246;10.368;2023-04-28T07:47:56;100996.72;;;11.32;63.01
11985;BME280;6052;53.246;10.368;2023-04-28T07:50:26;101004.41;;;11.40;63.34
11985;BME280;6052;53.246;10.368;2023-04-28T07:52:56;101006.88;;;11.42;63.73
11985;BME280;6052;53.246;10.368;2023-04-28T07:55:26;101002.31;;;11.54;64.02
11985;BME280;6052;53.246;10.368;2023-04-28T07:57:55;100993.34;;;11.60;63.62
11985;BME280;6052;53.246;10.368;2023-04-28T08:00:27;100988.63;;;11.67;64.14
11985;BME280;6052;53.246;10.368;2023-04-28T08:02:57;100984.19;;;11.72;64.84
11985;BME280;6052;53.246;10.368;2023-04-28T08:05:26;100982.19;;;11.79;64.25
11985;BME280;6052;53.246;10.368;2023-04-28T08:07:56;100978.66;;;11.90;64.91
11985;BME280;6052;53.246;10.368;2023-04-28T08:10:25;100986.97;;;11.89;62.94
11985;BME280;6052;53.246;10.368;2023-04-28T08:12:55;100981.94;;;11.92;63.19
11985;BME280;6052;53.246;10.368;2023-04-28T08:15:27;100975.25;;;11.95;63.69
11985;BME280;6052;53.246;10.368;2023-04-28T08:17:56;100974.41;;;11.94;62.89
11985;BME280;6052;53.246;10.368;2023-04-28T08:20:26;100979.31;;;12.09;61.83
11985;BME280;6052;53.246;10.368;2023-04-28T08:22:55;100973.19;;;12.13;61.74
11985;BME280;6052;53.246;10.368;2023-04-28T08:25:25;100969.78;;;12.18;60.73
11985;BME280;6052;53.246;10.368;2023-04-28T08:27:55;100972.44;;;12.29;61.26
11985;BME280;6052;53.246;10.368;2023-04-28T08:30:27;100970.88;;;12.33;62.07
11985;BME280;6052;53.246;10.368;2023-04-28T08:32:57;100968.34;;;12.27;62.23
11985;BME280;6052;53.246;10.368;2023-04-28T08:35:26;100967.53;;;12.26;61.51
11985;BME280;6052;53.246;10.368;2023-04-28T08:37:56;100979.41;;;12.42;63.03
11985;BME280;6052;53.246;10.368;2023-04-28T08:40:25;100971.13;;;12.48;61.63
11985;BME280;6052;53.246;10.368;2023-04-28T08:42:56;100964.44;;;12.51;60.70
11985;BME280;6052;53.246;10.368;2023-04-28T08:45:29;100966.03;;;12.47;60.91
11985;BME280;6052;53.246;10.368;2023-04-28T08:48:00;100966.59;;;12.49;61.30
11985;BME280;6052;53.246;10.368;2023-04-28T08:50:33;100961.06;;;12.55;62.06
11985;BME280;6052;53.246;10.368;2023-04-28T08:53:03;100958.91;;;12.57;62.95
11985;BME280;6052;53.246;10.368;2023-04-28T08:55:34;100964.38;;;12.62;61.45
11985;BME280;6052;53.246;10.368;2023-04-28T08:58:04;100952.72;;;12.57;61.11
11985;BME280;6052;53.246;10.368;2023-04-28T09:00:38;100952.00;;;12.61;61.50
11985;BME280;6052;53.246;10.368;2023-04-28T09:03:12;100955.28;;;12.63;61.44
11985;BME280;6052;53.246;10.368;2023-04-28T09:05:42;100955.00;;;12.65;61.16
11985;BME280;6052;53.246;10.368;2023-04-28T09:08:12;100952.59;;;12.63;60.88
11985;BME280;6052;53.246;10.368;2023-04-28T09:10:41;100951.38;;;12.71;60.64
11985;BME280;6052;53.246;10.368;2023-04-28T09:13:23;100943.59;;;12.74;61.18
11985;BME280;6052;53.246;10.368;2023-04-28T09:16:00;100938.94;;;12.86;61.22
11985;BME280;6052;53.246;10.368;2023-04-28T09:18:31;100941.94;;;12.90;60.96
11985;BME280;6052;53.246;10.368;2023-04-28T09:21:05;100932.81;;;12.91;60.38
11985;BME280;6052;53.246;10.368;2023-04-28T09:23:45;100939.44;;;13.00;60.79
11985;BME280;6052;53.246;10.368;2023-04-28T09:26:16;100935.25;;;13.09;60.78
11985;BME280;6052;53.246;10.368;2023-04-28T09:28:45;100925.47;;;13.03;61.82
11985;BME280;6052;53.246;10.368;2023-04-28T09:31:24;100929.97;;;12.97;61.41
11985;BME280;6052;53.246;10.368;2023-04-28T09:33:58;100924.41;;;13.04;61.92
11985;BME280;6052;53.246;10.368;2023-04-28T09:36:28;100921.84;;;13.14;61.52
11985;BME280;6052;53.246;10.368;2023-04-28T09:38:59;100925.13;;;13.16;60.49
11985;BME280;6052;53.246;10.368;2023-04-28T09:41:35;100920.00;;;13.14;60.25
11985;BME280;6052;53.246;10.368;2023-04-28T09:44:13;100935.34;;;13.14;60.52
11985;BME280;6052;53.246;10.368;2023-04-28T09:46:47;100925.63;;;13.13;60.36
11985;BME280;6052;53.246;10.368;2023-04-28T09:49:17;100925.06;;;13.11;61.07
11985;BME280;6052;53.246;10.368;2023-04-28T09:51:46;100924.91;;;13.17;60.44
11985;BME280;6052;53.246;10.368;2023-04-28T09:54:15;100924.69;;;13.24;61.21
11985;BME280;6052;53.246;10.368;2023-04-28T09:56:46;100915.06;;;13.28;60.59
11985;BME280;6052;53.246;10.368;2023-04-28T09:59:16;100917.19;;;13.26;60.68
11985;BME280;6052;53.246;10.368;2023-04-28T10:01:49;100915.44;;;13.36;60.28
11985;BME280;6052;53.246;10.368;2023-04-28T10:04:19;100904.47;;;13.43;60.24
11985;BME280;6052;53.246;10.368;2023-04-28T10:06:50;100900.28;;;13.52;60.18
11985;BME280;6052;53.246;10.368;2023-04-28T10:09:20;100900.84;;;13.54;59.80
11985;BME280;6052;53.246;10.368;2023-04-28T10:11:52;100889.00;;;13.55;59.79
11985;BME280;6052;53.246;10.368;2023-04-28T10:14:22;100886.13;;;13.61;60.22
11985;BME280;6052;53.246;10.368;2023-04-28T10:16:55;100889.66;;;13.67;59.70
11985;BME280;6052;53.246;10.368;2023-04-28T10:19:32;100882.88;;;13.64;60.15
11985;BME280;6052;53.246;10.368;2023-04-28T10:22:18;100881.94;;;13.75;60.15
11985;BME280;6052;53.246;10.368;2023-04-28T10:25:07;100878.75;;;13.78;59.91
11985;BME280;6052;53.246;10.368;2023-04-28T10:27:42;100867.50;;;13.86;60.52
11985;BME280;6052;53.246;10.368;2023-04-28T10:30:13;100869.94;;;13.88;61.70
11985;BME280;6052;53.246;10.368;2023-04-28T10:33:23;100858.69;;;13.96;60.75
11985;BME280;6052;53.246;10.368;2023-04-28T10:35:54;100852.00;;;14.03;60.72
11985;BME280;6052;53.246;10.368;2023-04-28T10:38:24;100847.44;;;14.04;60.04
11985;BME280;6052;53.246;10.368;2023-04-28T10:40:53;100844.19;;;14.07;60.53
11985;BME280;6052;53.246;10.368;2023-04-28T10:43:34;100847.19;;;14.05;60.17
11985;BME280;6052;53.246;10.368;2023-04-28T10:46:08;100842.63;;;14.11;59.69
11985;BME280;6052;53.246;10.368;2023-04-28T10:49:08;100841.31;;;14.13;60.35
11985;BME280;6052;53.246;10.368;2023-04-28T10:51:37;100845.94;;;14.18;61.02
11985;BME280;6052;53.246;10.368;2023-04-28T10:54:16;100837.28;;;14.16;59.95
11985;BME280;6052;53.246;10.368;2023-04-28T10:57:17;100841.59;;;14.17;60.26
11985;BME280;6052;53.246;10.368;2023-04-28T10:59:49;100836.47;;;14.15;59.90
11985;BME280;6052;53.246;10.368;2023-04-28T11:02:35;100835.41;;;14.16;60.00
11985;BME280;6052;53.246;10.368;2023-04-28T11:05:16;100829.81;;;14.23;60.65
11985;BME280;6052;53.246;10.368;2023-04-28T11:11:14;100827.00;;;14.39;61.81
11985;BME280;6052;53.246;10.368;2023-04-28T11:13:44;100827.50;;;14.36;60.83
11985;BME280;6052;53.246;10.368;2023-04-28T11:16:16;100820.28;;;14.47;61.03
11985;BME280;6052;53.246;10.368;2023-04-28T11:18:51;100819.66;;;14.35;60.62
11985;BME280;6052;53.246;10.368;2023-04-28T11:21:25;100818.59;;;14.41;60.37
11985;BME280;6052;53.246;10.368;2023-04-28T11:23:56;100825.69;;;14.47;61.52
11985;BME280;6052;53.246;10.368;2023-04-28T11:26:26;100819.78;;;14.55;60.10
11985;BME280;6052;53.246;10.368;2023-04-28T11:28:57;100814.94;;;14.52;60.71
11985;BME280;6052;53.246;10.368;2023-04-28T11:31:28;100813.91;;;14.63;60.81
11985;BME280;6052;53.246;10.368;2023-04-28T11:34:00;100809.03;;;14.60;61.01
11985;BME280;6052;53.246;10.368;2023-04-28T11:36:37;100807.97;;;14.61;60.38
11985;BME280;6052;53.246;10.368;2023-04-28T11:39:08;100796.69;;;14.74;60.56
11985;BME280;6052;53.246;10.368;2023-04-28T11:41:39;100800.53;;;14.83;60.94
11985;BME280;6052;53.246;10.368;2023-04-28T11:44:11;100801.63;;;14.87;61.69
11985;BME280;6052;53.246;10.368;2023-04-28T11:46:44;100806.91;;;15.13;62.13
11985;BME280;6052;53.246;10.368;2023-04-28T11:49:17;100791.22;;;15.15;61.20
11985;BME280;6052;53.246;10.368;2023-04-28T11:51:50;100799.59;;;15.14;60.78
11985;BME280;6052;53.246;10.368;2023-04-28T11:54:21;100795.50;;;15.06;60.41
11985;BME280;6052;53.246;10.368;2023-04-28T11:56:52;100793.63;;;15.12;59.52
11985;BME280;6052;53.246;10.368;2023-04-28T11:59:24;100795.50;;;15.11;60.42
11985;BME280;6052;53.246;10.368;2023-04-28T12:01:55;100794.75;;;15.16;60.04
11985;BME280;6052;53.246;10.368;2023-04-28T12:04:27;100796.09;;;15.18;59.89
11985;BME280;6052;53.246;10.368;2023-04-28T12:07:01;100790.16;;;15.21;60.22
11985;BME280;6052;53.246;10.368;2023-04-28T12:09:33;100782.59;;;15.23;59.42
11985;BME280;6052;53.246;10.368;2023-04-28T12:12:04;100773.13;;;15.21;59.28
11985;BME280;6052;53.246;10.368;2023-04-28T12:14:54;100770.16;;;15.22;60.01
11985;BME280;6052;53.246;10.368;2023-04-28T12:17:25;100763.94;;;15.22;59.93
11985;BME280;6052;53.246;10.368;2023-04-28T12:19:57;100773.66;;;15.23;60.12
11985;BME280;6052;53.246;10.368;2023-04-28T12:22:30;100767.72;;;15.26;59.23
11985;BME280;6052;53.246;10.368;2023-04-28T12:25:03;100762.66;;;15.39;60.96
11985;BME280;6052;53.246;10.368;2023-04-28T12:27:34;100761.81;;;15.34;59.82
11985;BME280;6052;53.246;10.368;2023-04-28T12:30:26;100760.50;;;15.41;59.68
11985;BME280;6052;53.246;10.368;2023-04-28T12:32:56;100743.72;;;15.34;58.66
11985;BME280;6052;53.246;10.368;2023-04-28T12:35:27;100755.63;;;15.38;59.18
11985;BME280;6052;53.246;10.368;2023-04-28T12:38:00;100743.47;;;15.41;59.03
11985;BME280;6052;53.246;10.368;2023-04-28T12:40:29;100739.59;;;15.27;58.62
11985;BME280;6052;53.246;10.368;2023-04-28T12:42:58;100745.91;;;15.42;59.71
11985;BME280;6052;53.246;10.368;2023-04-28T12:45:28;100739.66;;;15.37;59.38
11985;BME280;6052;53.246;10.368;2023-04-28T12:47:58;100744.28;;;15.36;58.69
11985;BME280;6052;53.246;10.368;2023-04-28T12:50:27;100738.25;;;15.29;58.18
11985;BME280;6052;53.246;10.368;2023-04-28T12:53:01;100737.16;;;15.30;59.50
11985;BME280;6052;53.246;10.368;2023-04-28T12:55:30;100732.06;;;15.34;59.63
11985;BME280;6052;53.246;10.368;2023-04-28T12:58:00;100737.72;;;15.32;59.51
11985;BME280;6052;53.246;10.368;2023-04-28T13:00:29;100730.69;;;15.31;60.06
11985;BME280;6052;53.246;10.368;2023-04-28T13:02:58;100730.69;;;15.31;59.74
11985;BME280;6052;53.246;10.368;2023-04-28T13:05:30;100728.31;;;15.35;60.36
11985;BME280;6052;53.246;10.368;2023-04-28T13:08:03;100713.13;;;15.34;59.55
11985;BME280;6052;53.246;10.368;2023-04-28T13:10:33;100715.28;;;15.32;59.69
11985;BME280;6052;53.246;10.368;2023-04-28T13:13:02;100716.66;;;15.39;60.57
11985;BME280;6052;53.246;10.368;2023-04-28T13:15:32;100718.84;;;15.47;60.45
11985;BME280;6052;53.246;10.368;2023-04-28T13:18:04;100711.56;;;15.58;60.87
11985;BME280;6052;53.246;10.368;2023-04-28T13:20:33;100704.00;;;15.55;59.17